sensor_id;sensor_type;location;lat;lon;timestamp;P1;durP1;ratioP1;P2;durP2;ratioP2
11245;SDS011;59870;50.106;8.580;2023-09-18T00:00:51;8.53;;;6.37;;
11245;SDS011;59870;50.106;8.580;2023-09-18T00:03:20;7.63;;;7.00;;
11245;SDS011;59870;50.106;8.580;2023-09-18T00:05:51;6.80;;;6.20;;
11245;SDS011;59870;50.106;8.580;2023-09-18T00:08:19;7.67;;;6.90;;
11245;SDS011;59870;50.106;8.580;2023-09-18T00:10:48;7.17;;;6.47;;
11245;SDS011;59870;50.106;8.580;2023-09-18T00:13:17;10.43;;;7.27;;
11245;SDS011;59870;50.106;8.580;2023-09-18T00:15:45;7.30;;;6.80;;
11245;SDS011;59870;50.106;8.580;2023-09-18T00:18:16;6.83;;;6.23;;
11245;SDS011;59870;50.106;8.580;2023-09-18T00:20:44;5.97;;;5.43;;
11245;SDS011;59870;50.106;8.580;2023-09-18T00:23:16;7.30;;;6.60;;
11245;SDS011;59870;50.106;8.580;2023-09-18T00:25:43;7.87;;;5.70;;
11245;SDS011;59870;50.106;8.580;2023-09-18T00:28:11;6.80;;;6.17;;
11245;SDS011;59870;50.106;8.580;2023-09-18T00:30:42;6.70;;;6.20;;
11245;SDS011;59870;50.106;8.580;2023-09-18T00:33:15;6.10;;;5.63;;
11245;SDS011;59870;50.106;8.580;2023-09-18T00:35:49;7.87;;;7.00;;
11245;SDS011;59870;50.106;8.580;2023-09-18T00:38:18;6.80;;;6.20;;
11245;SDS011;59870;50.106;8.580;2023-09-18T00:40:46;6.93;;;6.23;;
11245;SDS011;59870;50.106;8.580;2023-09-18T00:43:13;6.37;;;5.73;;
11245;SDS011;59870;50.106;8.580;2023-09-18T00:45:44;6.97;;;6.37;;
11245;SDS011;59870;50.106;8.580;2023-09-18T00:48:14;8.60;;;6.97;;
11245;SDS011;59870;50.106;8.580;2023-09-18T00:50:46;6.10;;;5.60;;
11245;SDS011;59870;50.106;8.580;2023-09-18T00:53:17;5.83;;;5.33;;
11245;SDS011;59870;50.106;8.580;2023-09-18T00:55:46;7.03;;;6.27;;
11245;SDS011;59870;50.106;8.580;2023-09-18T00:58:16;7.37;;;6.60;;
11245;SDS011;59870;50.106;8.580;2023-09-18T01:00:44;7.10;;;5.83;;
11245;SDS011;59870;50.106;8.580;2023-09-18T01:03:11;6.80;;;6.10;;
11245;SDS011;59870;50.106;8.580;2023-09-18T01:05:39;6.40;;;5.80;;
11245;SDS011;59870;50.106;8.580;2023-09-18T01:08:06;7.00;;;6.40;;
11245;SDS011;59870;50.106;8.580;2023-09-18T01:10:36;8.07;;;6.03;;
11245;SDS011;59870;50.106;8.580;2023-09-18T01:13:31;6.27;;;5.80;;
11245;SDS011;59870;50.106;8.580;2023-09-18T01:16:27;7.60;;;6.90;;
11245;SDS011;59870;50.106;8.580;2023-09-18T01:19:02;6.20;;;5.67;;
11245;SDS011;59870;50.106;8.580;2023-09-18T01:21:30;6.93;;;6.43;;
11245;SDS011;59870;50.106;8.580;2023-09-18T01:23:58;6.57;;;6.03;;
11245;SDS011;59870;50.106;8.580;2023-09-18T01:26:26;6.13;;;5.60;;
11245;SDS011;59870;50.106;8.580;2023-09-18T01:28:54;6.60;;;6.00;;
11245;SDS011;59870;50.106;8.580;2023-09-18T01:31:21;6.13;;;5.63;;
11245;SDS011;59870;50.106;8.580;2023-09-18T01:33:49;6.70;;;5.60;;
11245;SDS011;59870;50.106;8.580;2023-09-18T01:36:17;5.77;;;5.37;;
11245;SDS011;59870;50.106;8.580;2023-09-18T01:38:45;7.20;;;6.10;;
11245;SDS011;59870;50.106;8.580;2023-09-18T01:41:13;7.10;;;6.40;;
11245;SDS011;59870;50.106;8.580;2023-09-18T01:43:41;6.50;;;5.90;;
11245;SDS011;59870;50.106;8.580;2023-09-18T01:46:08;6.53;;;5.60;;
11245;SDS011;59870;50.106;8.580;2023-09-18T01:48:36;6.20;;;5.70;;
11245;SDS011;59870;50.106;8.580;2023-09-18T01:51:04;6.70;;;6.10;;
11245;SDS011;59870;50.106;8.580;2023-09-18T01:53:32;6.60;;;6.20;;
11245;SDS011;59870;50.106;8.580;2023-09-18T01:55:59;6.17;;;5.77;;
11245;SDS011;59870;50.106;8.580;2023-09-18T01:58:28;5.53;;;5.10;;
11245;SDS011;59870;50.106;8.580;2023-09-18T02:00:55;6.20;;;5.73;;
11245;SDS011;59870;50.106;8.580;2023-09-18T02:03:27;6.30;;;5.80;;
11245;SDS011;59870;50.106;8.580;2023-09-18T02:06:15;6.60;;;5.90;;
11245;SDS011;59870;50.106;8.580;2023-09-18T02:08:42;6.27;;;5.87;;
11245;SDS011;59870;50.106;8.580;2023-09-18T02:11:10;6.50;;;6.00;;
11245;SDS011;59870;50.106;8.580;2023-09-18T02:13:37;6.17;;;5.57;;
11245;SDS011;59870;50.106;8.580;2023-09-18T02:16:05;5.60;;;5.20;;
11245;SDS011;59870;50.106;8.580;2023-09-18T02:18:33;6.53;;;6.03;;
11245;SDS011;59870;50.106;8.580;2023-09-18T02:21:00;6.57;;;5.97;;
11245;SDS011;59870;50.106;8.580;2023-09-18T02:23:28;6.30;;;5.80;;
11245;SDS011;59870;50.106;8.580;2023-09-18T02:25:56;6.63;;;6.03;;
11245;SDS011;59870;50.106;8.580;2023-09-18T02:28:24;6.73;;;6.23;;
11245;SDS011;59870;50.106;8.580;2023-09-18T02:30:52;6.87;;;6.37;;
11245;SDS011;59870;50.106;8.580;2023-09-18T02:33:20;7.57;;;6.93;;
11245;SDS011;59870;50.106;8.580;2023-09-18T02:35:47;6.73;;;6.23;;
11245;SDS011;59870;50.106;8.580;2023-09-18T02:38:15;7.33;;;6.83;;
11245;SDS011;59870;50.106;8.580;2023-09-18T02:40:42;7.53;;;6.87;;
11245;SDS011;59870;50.106;8.580;2023-09-18T02:43:09;7.93;;;6.50;;
11245;SDS011;59870;50.106;8.580;2023-09-18T02:45:37;6.90;;;6.50;;
11245;SDS011;59870;50.106;8.580;2023-09-18T02:48:04;7.33;;;6.70;;
11245;SDS011;59870;50.106;8.580;2023-09-18T02:50:32;8.07;;;7.27;;
11245;SDS011;59870;50.106;8.580;2023-09-18T02:53:00;9.17;;;6.97;;
11245;SDS011;59870;50.106;8.580;2023-09-18T02:55:28;7.73;;;7.13;;
11245;SDS011;59870;50.106;8.580;2023-09-18T02:57:56;7.97;;;6.50;;
11245;SDS011;59870;50.106;8.580;2023-09-18T03:00:24;7.60;;;6.90;;
11245;SDS011;59870;50.106;8.580;2023-09-18T03:03:09;7.07;;;6.40;;
11245;SDS011;59870;50.106;8.580;2023-09-18T03:05:38;7.70;;;7.00;;
11245;SDS011;59870;50.106;8.580;2023-09-18T03:08:07;7.37;;;6.67;;
11245;SDS011;59870;50.106;8.580;2023-09-18T03:10:37;7.27;;;6.77;;
11245;SDS011;59870;50.106;8.580;2023-09-18T03:13:09;7.57;;;6.90;;
11245;SDS011;59870;50.106;8.580;2023-09-18T03:15:38;7.83;;;6.70;;
11245;SDS011;59870;50.106;8.580;2023-09-18T03:18:05;7.20;;;6.60;;
11245;SDS011;59870;50.106;8.580;2023-09-18T03:20:37;8.13;;;6.90;;
11245;SDS011;59870;50.106;8.580;2023-09-18T03:23:05;7.50;;;7.00;;
11245;SDS011;59870;50.106;8.580;2023-09-18T03:25:33;7.23;;;6.03;;
11245;SDS011;59870;50.106;8.580;2023-09-18T03:28:16;6.47;;;5.97;;
11245;SDS011;59870;50.106;8.580;2023-09-18T03:30:44;7.23;;;6.53;;
11245;SDS011;59870;50.106;8.580;2023-09-18T03:33:12;7.60;;;7.03;;
11245;SDS011;59870;50.106;8.580;2023-09-18T03:35:49;8.33;;;7.17;;
11245;SDS011;59870;50.106;8.580;2023-09-18T03:38:23;7.00;;;6.40;;
11245;SDS011;59870;50.106;8.580;2023-09-18T03:40:51;9.83;;;6.63;;
11245;SDS011;59870;50.106;8.580;2023-09-18T03:43:20;6.07;;;5.57;;
11245;SDS011;59870;50.106;8.580;2023-09-18T03:45:48;7.40;;;6.27;;
11245;SDS011;59870;50.106;8.580;2023-09-18T03:48:17;7.70;;;7.00;;
11245;SDS011;59870;50.106;8.580;2023-09-18T03:50:44;7.43;;;6.73;;
11245;SDS011;59870;50.106;8.580;2023-09-18T03:53:14;7.13;;;6.47;;
11245;SDS011;59870;50.106;8.580;2023-09-18T03:55:42;7.77;;;6.90;;
11245;SDS011;59870;50.106;8.580;2023-09-18T03:58:09;8.57;;;6.80;;
11245;SDS011;59870;50.106;8.580;2023-09-18T04:00:37;7.33;;;6.83;;
11245;SDS011;59870;50.106;8.580;2023-09-18T04:03:05;8.57;;;7.07;;
11245;SDS011;59870;50.106;8.580;2023-09-18T04:05:32;8.13;;;7.10;;
11245;SDS011;59870;50.106;8.580;2023-09-18T04:08:00;8.27;;;7.43;;
11245;SDS011;59870;50.106;8.580;2023-09-18T04:10:28;7.37;;;6.73;;
11245;SDS011;59870;50.106;8.580;2023-09-18T04:12:56;7.47;;;6.77;;
11245;SDS011;59870;50.106;8.580;2023-09-18T04:15:24;7.20;;;6.60;;
11245;SDS011;59870;50.106;8.580;2023-09-18T04:17:52;7.13;;;6.53;;
11245;SDS011;59870;50.106;8.580;2023-09-18T04:20:20;7.60;;;7.10;;
11245;SDS011;59870;50.106;8.580;2023-09-18T04:22:47;7.50;;;6.97;;
11245;SDS011;59870;50.106;8.580;2023-09-18T04:25:35;9.10;;;7.20;;
11245;SDS011;59870;50.106;8.580;2023-09-18T04:28:03;7.40;;;6.83;;
11245;SDS011;59870;50.106;8.580;2023-09-18T04:30:30;6.53;;;5.87;;
11245;SDS011;59870;50.106;8.580;2023-09-18T04:32:57;7.23;;;6.77;;
11245;SDS011;59870;50.106;8.580;2023-09-18T04:35:25;7.27;;;6.77;;
11245;SDS011;59870;50.106;8.580;2023-09-18T04:37:55;8.50;;;7.70;;
11245;SDS011;59870;50.106;8.580;2023-09-18T04:40:23;9.13;;;7.00;;
11245;SDS011;59870;50.106;8.580;2023-09-18T04:42:51;7.60;;;6.87;;
11245;SDS011;59870;50.106;8.580;2023-09-18T04:45:19;7.97;;;7.17;;
11245;SDS011;59870;50.106;8.580;2023-09-18T04:47:47;9.00;;;6.87;;
11245;SDS011;59870;50.106;8.580;2023-09-18T04:50:15;7.60;;;6.90;;
11245;SDS011;59870;50.106;8.580;2023-09-18T04:52:45;7.70;;;7.10;;
11245;SDS011;59870;50.106;8.580;2023-09-18T04:55:14;7.50;;;6.73;;
11245;SDS011;59870;50.106;8.580;2023-09-18T04:57:42;8.67;;;7.33;;
11245;SDS011;59870;50.106;8.580;2023-09-18T05:00:10;8.00;;;7.20;;
11245;SDS011;59870;50.106;8.580;2023-09-18T05:02:44;7.47;;;6.97;;
11245;SDS011;59870;50.106;8.580;2023-09-18T05:05:12;7.53;;;6.83;;
11245;SDS011;59870;50.106;8.580;2023-09-18T05:07:41;7.60;;;6.67;;
11245;SDS011;59870;50.106;8.580;2023-09-18T05:10:09;7.40;;;6.77;;
11245;SDS011;59870;50.106;8.580;2023-09-18T05:12:38;7.33;;;6.63;;
11245;SDS011;59870;50.106;8.580;2023-09-18T05:15:07;7.63;;;6.70;;
11245;SDS011;59870;50.106;8.580;2023-09-18T05:17:41;6.77;;;6.30;;
11245;SDS011;59870;50.106;8.580;2023-09-18T05:20:11;6.70;;;6.20;;
11245;SDS011;59870;50.106;8.580;2023-09-18T05:22:40;7.00;;;6.40;;
11245;SDS011;59870;50.106;8.580;2023-09-18T05:25:09;6.87;;;6.37;;
11245;SDS011;59870;50.106;8.580;2023-09-18T05:27:37;7.23;;;6.77;;
11245;SDS011;59870;50.106;8.580;2023-09-18T05:30:11;7.57;;;6.97;;
11245;SDS011;59870;50.106;8.580;2023-09-18T05:32:41;7.53;;;7.03;;
11245;SDS011;59870;50.106;8.580;2023-09-18T05:35:09;7.00;;;6.50;;
11245;SDS011;59870;50.106;8.580;2023-09-18T05:37:39;7.10;;;6.60;;
11245;SDS011;59870;50.106;8.580;2023-09-18T05:40:08;7.60;;;6.90;;
11245;SDS011;59870;50.106;8.580;2023-09-18T05:42:37;6.40;;;6.00;;
11245;SDS011;59870;50.106;8.580;2023-09-18T05:45:05;6.90;;;6.23;;
11245;SDS011;59870;50.106;8.580;2023-09-18T05:47:33;9.03;;;6.97;;
11245;SDS011;59870;50.106;8.580;2023-09-18T05:50:05;6.70;;;6.30;;
11245;SDS011;59870;50.106;8.580;2023-09-18T05:52:34;7.47;;;6.77;;
11245;SDS011;59870;50.106;8.580;2023-09-18T05:55:02;7.27;;;6.53;;
11245;SDS011;59870;50.106;8.580;2023-09-18T05:57:31;8.60;;;7.03;;
11245;SDS011;59870;50.106;8.580;2023-09-18T05:59:59;8.00;;;6.40;;
11245;SDS011;59870;50.106;8.580;2023-09-18T06:02:28;7.03;;;6.53;;
11245;SDS011;59870;50.106;8.580;2023-09-18T06:04:56;10.93;;;6.13;;
11245;SDS011;59870;50.106;8.580;2023-09-18T06:07:24;7.97;;;6.57;;
11245;SDS011;59870;50.106;8.580;2023-09-18T06:09:53;7.00;;;6.30;;
11245;SDS011;59870;50.106;8.580;2023-09-18T06:12:20;10.03;;;7.40;;
11245;SDS011;59870;50.106;8.580;2023-09-18T06:14:48;7.07;;;6.07;;
11245;SDS011;59870;50.106;8.580;2023-09-18T06:17:16;8.13;;;6.10;;
11245;SDS011;59870;50.106;8.580;2023-09-18T06:19:45;6.87;;;5.30;;
11245;SDS011;59870;50.106;8.580;2023-09-18T06:22:13;10.00;;;6.23;;
11245;SDS011;59870;50.106;8.580;2023-09-18T06:24:40;6.73;;;5.10;;
11245;SDS011;59870;50.106;8.580;2023-09-18T06:27:09;11.13;;;5.80;;
11245;SDS011;59870;50.106;8.580;2023-09-18T06:29:38;11.63;;;5.87;;
11245;SDS011;59870;50.106;8.580;2023-09-18T06:32:06;8.20;;;5.17;;
11245;SDS011;59870;50.106;8.580;2023-09-18T06:34:34;8.27;;;5.90;;
11245;SDS011;59870;50.106;8.580;2023-09-18T06:37:01;6.87;;;5.20;;
11245;SDS011;59870;50.106;8.580;2023-09-18T06:39:31;6.97;;;5.10;;
11245;SDS011;59870;50.106;8.580;2023-09-18T06:41:59;8.70;;;5.23;;
11245;SDS011;59870;50.106;8.580;2023-09-18T06:44:27;6.07;;;5.03;;
11245;SDS011;59870;50.106;8.580;2023-09-18T06:46:54;11.87;;;5.73;;
11245;SDS011;59870;50.106;8.580;2023-09-18T06:49:22;9.47;;;4.90;;
11245;SDS011;59870;50.106;8.580;2023-09-18T06:51:49;8.90;;;5.17;;
11245;SDS011;59870;50.106;8.580;2023-09-18T06:54:17;5.70;;;5.00;;
11245;SDS011;59870;50.106;8.580;2023-09-18T06:56:44;5.63;;;4.80;;
11245;SDS011;59870;50.106;8.580;2023-09-18T06:59:12;7.23;;;5.30;;
11245;SDS011;59870;50.106;8.580;2023-09-18T07:01:39;7.60;;;5.17;;
11245;SDS011;59870;50.106;8.580;2023-09-18T07:04:08;7.97;;;5.23;;
11245;SDS011;59870;50.106;8.580;2023-09-18T07:06:36;8.40;;;4.50;;
11245;SDS011;59870;50.106;8.580;2023-09-18T07:09:04;7.87;;;5.37;;
11245;SDS011;59870;50.106;8.580;2023-09-18T07:11:34;9.63;;;5.10;;
11245;SDS011;59870;50.106;8.580;2023-09-18T07:14:01;9.23;;;4.10;;
11245;SDS011;59870;50.106;8.580;2023-09-18T07:16:33;11.57;;;4.90;;
11245;SDS011;59870;50.106;8.580;2023-09-18T07:19:01;9.17;;;5.47;;
11245;SDS011;59870;50.106;8.580;2023-09-18T07:21:31;6.83;;;4.50;;
11245;SDS011;59870;50.106;8.580;2023-09-18T07:24:00;5.13;;;4.30;;
11245;SDS011;59870;50.106;8.580;2023-09-18T07:26:28;7.77;;;4.63;;
11245;SDS011;59870;50.106;8.580;2023-09-18T07:28:55;6.83;;;5.10;;
11245;SDS011;59870;50.106;8.580;2023-09-18T07:31:27;9.00;;;4.70;;
11245;SDS011;59870;50.106;8.580;2023-09-18T07:33:54;9.00;;;4.83;;
11245;SDS011;59870;50.106;8.580;2023-09-18T07:36:22;6.27;;;4.30;;
11245;SDS011;59870;50.106;8.580;2023-09-18T07:38:49;9.20;;;4.73;;
11245;SDS011;59870;50.106;8.580;2023-09-18T07:41:17;7.60;;;4.53;;
11245;SDS011;59870;50.106;8.580;2023-09-18T07:43:46;6.57;;;4.03;;
11245;SDS011;59870;50.106;8.580;2023-09-18T07:46:13;9.10;;;4.40;;
11245;SDS011;59870;50.106;8.580;2023-09-18T07:48:41;9.53;;;4.33;;
11245;SDS011;59870;50.106;8.580;2023-09-18T07:51:12;9.57;;;5.37;;
11245;SDS011;59870;50.106;8.580;2023-09-18T07:53:41;5.10;;;4.10;;
11245;SDS011;59870;50.106;8.580;2023-09-18T07:56:09;5.97;;;4.23;;
11245;SDS011;59870;50.106;8.580;2023-09-18T07:58:37;10.10;;;4.13;;
11245;SDS011;59870;50.106;8.580;2023-09-18T08:01:06;8.90;;;5.30;;
11245;SDS011;59870;50.106;8.580;2023-09-18T08:03:35;8.17;;;4.67;;
11245;SDS011;59870;50.106;8.580;2023-09-18T08:06:03;8.53;;;4.60;;
11245;SDS011;59870;50.106;8.580;2023-09-18T08:08:31;7.40;;;4.23;;
11245;SDS011;59870;50.106;8.580;2023-09-18T08:11:00;7.37;;;4.70;;
11245;SDS011;59870;50.106;8.580;2023-09-18T08:13:37;9.70;;;5.23;;
11245;SDS011;59870;50.106;8.580;2023-09-18T08:16:05;6.40;;;4.57;;
11245;SDS011;59870;50.106;8.580;2023-09-18T08:18:34;6.57;;;3.80;;
11245;SDS011;59870;50.106;8.580;2023-09-18T08:21:02;10.00;;;3.77;;
11245;SDS011;59870;50.106;8.580;2023-09-18T08:23:31;9.60;;;3.83;;
11245;SDS011;59870;50.106;8.580;2023-09-18T08:25:59;8.00;;;3.87;;
11245;SDS011;59870;50.106;8.580;2023-09-18T08:28:27;10.70;;;4.00;;
11245;SDS011;59870;50.106;8.580;2023-09-18T08:30:55;7.13;;;4.13;;
11245;SDS011;59870;50.106;8.580;2023-09-18T08:33:23;10.60;;;3.70;;
11245;SDS011;59870;50.106;8.580;2023-09-18T08:35:51;7.50;;;4.47;;
11245;SDS011;59870;50.106;8.580;2023-09-18T08:38:19;7.97;;;3.60;;
11245;SDS011;59870;50.106;8.580;2023-09-18T08:40:47;8.23;;;3.57;;
11245;SDS011;59870;50.106;8.580;2023-09-18T08:43:15;8.83;;;3.80;;
11245;SDS011;59870;50.106;8.580;2023-09-18T08:45:54;10.30;;;4.53;;
11245;SDS011;59870;50.106;8.580;2023-09-18T08:48:28;7.73;;;3.90;;
11245;SDS011;59870;50.106;8.580;2023-09-18T08:51:02;6.07;;;4.17;;
11245;SDS011;59870;50.106;8.580;2023-09-18T08:53:32;5.00;;;3.53;;
11245;SDS011;59870;50.106;8.580;2023-09-18T08:56:01;9.37;;;4.27;;
11245;SDS011;59870;50.106;8.580;2023-09-18T08:58:32;8.47;;;3.77;;
11245;SDS011;59870;50.106;8.580;2023-09-18T09:01:06;6.30;;;3.50;;
11245;SDS011;59870;50.106;8.580;2023-09-18T09:03:37;10.47;;;4.10;;
11245;SDS011;59870;50.106;8.580;2023-09-18T09:06:09;6.83;;;3.97;;
11245;SDS011;59870;50.106;8.580;2023-09-18T09:08:36;6.73;;;3.80;;
11245;SDS011;59870;50.106;8.580;2023-09-18T09:11:05;8.83;;;3.97;;
11245;SDS011;59870;50.106;8.580;2023-09-18T09:13:38;6.33;;;3.63;;
11245;SDS011;59870;50.106;8.580;2023-09-18T09:16:12;8.97;;;3.77;;
11245;SDS011;59870;50.106;8.580;2023-09-18T09:18:50;5.17;;;3.90;;
11245;SDS011;59870;50.106;8.580;2023-09-18T09:21:19;9.07;;;3.93;;
11245;SDS011;59870;50.106;8.580;2023-09-18T09:23:47;8.90;;;3.80;;
11245;SDS011;59870;50.106;8.580;2023-09-18T09:26:16;5.60;;;3.70;;
11245;SDS011;59870;50.106;8.580;2023-09-18T09:28:45;6.47;;;3.83;;
11245;SDS011;59870;50.106;8.580;2023-09-18T09:31:22;7.70;;;4.23;;
11245;SDS011;59870;50.106;8.580;2023-09-18T09:33:54;4.17;;;3.53;;
11245;SDS011;59870;50.106;8.580;2023-09-18T09:36:23;9.30;;;3.97;;
11245;SDS011;59870;50.106;8.580;2023-09-18T09:38:54;5.83;;;3.93;;
11245;SDS011;59870;50.106;8.580;2023-09-18T09:41:25;4.37;;;3.37;;
11245;SDS011;59870;50.106;8.580;2023-09-18T09:43:57;5.83;;;3.30;;
11245;SDS011;59870;50.106;8.580;2023-09-18T09:46:25;5.53;;;3.43;;
11245;SDS011;59870;50.106;8.580;2023-09-18T09:49:00;3.03;;;2.80;;
11245;SDS011;59870;50.106;8.580;2023-09-18T09:51:30;3.87;;;2.73;;
11245;SDS011;59870;50.106;8.580;2023-09-18T09:53:58;5.97;;;3.20;;
11245;SDS011;59870;50.106;8.580;2023-09-18T09:56:47;3.30;;;3.00;;
11245;SDS011;59870;50.106;8.580;2023-09-18T09:59:18;3.07;;;2.70;;
11245;SDS011;59870;50.106;8.580;2023-09-18T10:01:47;5.37;;;2.90;;
11245;SDS011;59870;50.106;8.580;2023-09-18T10:04:18;3.20;;;2.90;;
11245;SDS011;59870;50.106;8.580;2023-09-18T10:06:51;4.83;;;3.10;;
11245;SDS011;59870;50.106;8.580;2023-09-18T10:09:21;3.67;;;3.23;;
11245;SDS011;59870;50.106;8.580;2023-09-18T10:11:51;3.20;;;2.97;;
11245;SDS011;59870;50.106;8.580;2023-09-18T10:14:20;3.13;;;2.60;;
11245;SDS011;59870;50.106;8.580;2023-09-18T10:17:16;3.70;;;2.60;;
11245;SDS011;59870;50.106;8.580;2023-09-18T10:19:49;4.60;;;3.00;;
11245;SDS011;59870;50.106;8.580;2023-09-18T10:22:54;3.40;;;2.70;;
11245;SDS011;59870;50.106;8.580;2023-09-18T10:25:24;3.43;;;2.90;;
11245;SDS011;59870;50.106;8.580;2023-09-18T10:27:58;2.80;;;2.60;;
11245;SDS011;59870;50.106;8.580;2023-09-18T10:30:29;2.80;;;2.60;;
11245;SDS011;59870;50.106;8.580;2023-09-18T10:32:59;3.97;;;2.73;;
11245;SDS011;59870;50.106;8.580;2023-09-18T10:35:28;2.83;;;2.63;;
11245;SDS011;59870;50.106;8.580;2023-09-18T10:37:56;3.07;;;2.70;;
11245;SDS011;59870;50.106;8.580;2023-09-18T10:40:25;3.20;;;2.37;;
11245;SDS011;59870;50.106;8.580;2023-09-18T10:42:55;3.27;;;3.07;;
11245;SDS011;59870;50.106;8.580;2023-09-18T10:45:25;2.90;;;2.70;;
11245;SDS011;59870;50.106;8.580;2023-09-18T10:47:53;3.07;;;2.83;;
11245;SDS011;59870;50.106;8.580;2023-09-18T10:50:23;4.47;;;2.60;;
11245;SDS011;59870;50.106;8.580;2023-09-18T10:52:52;3.10;;;2.50;;
11245;SDS011;59870;50.106;8.580;2023-09-18T10:55:21;2.70;;;2.50;;
11245;SDS011;59870;50.106;8.580;2023-09-18T10:57:52;3.60;;;2.40;;
11245;SDS011;59870;50.106;8.580;2023-09-18T11:00:22;2.67;;;2.43;;
11245;SDS011;59870;50.106;8.580;2023-09-18T11:02:52;2.87;;;2.77;;
11245;SDS011;59870;50.106;8.580;2023-09-18T11:05:29;2.90;;;2.70;;
11245;SDS011;59870;50.106;8.580;2023-09-18T11:11:06;3.27;;;3.03;;
11245;SDS011;59870;50.106;8.580;2023-09-18T11:13:43;3.70;;;2.63;;
11245;SDS011;59870;50.106;8.580;2023-09-18T11:16:32;3.00;;;2.70;;
11245;SDS011;59870;50.106;8.580;2023-09-18T11:21:34;2.77;;;2.40;;
11245;SDS011;59870;50.106;8.580;2023-09-18T11:24:02;3.93;;;2.60;;
11245;SDS011;59870;50.106;8.580;2023-09-18T11:26:31;2.87;;;2.67;;
11245;SDS011;59870;50.106;8.580;2023-09-18T11:29:04;3.27;;;3.07;;
11245;SDS011;59870;50.106;8.580;2023-09-18T11:34:32;2.83;;;2.60;;
11245;SDS011;59870;50.106;8.580;2023-09-18T11:37:02;5.53;;;2.50;;
11245;SDS011;59870;50.106;8.580;2023-09-18T11:39:45;2.50;;;2.20;;
11245;SDS011;59870;50.106;8.580;2023-09-18T11:42:16;3.50;;;2.30;;
11245;SDS011;59870;50.106;8.580;2023-09-18T11:44:46;3.10;;;2.20;;
11245;SDS011;59870;50.106;8.580;2023-09-18T11:47:19;5.60;;;2.47;;
11245;SDS011;59870;50.106;8.580;2023-09-18T11:49:54;2.77;;;2.60;;
11245;SDS011;59870;50.106;8.580;2023-09-18T11:52:27;2.83;;;2.60;;
11245;SDS011;59870;50.106;8.580;2023-09-18T11:54:58;2.57;;;2.30;;
11245;SDS011;59870;50.106;8.580;2023-09-18T11:57:26;2.60;;;2.40;;
11245;SDS011;59870;50.106;8.580;2023-09-18T11:59:57;3.17;;;2.97;;
11245;SDS011;59870;50.106;8.580;2023-09-18T12:02:38;3.23;;;2.90;;
11245;SDS011;59870;50.106;8.580;2023-09-18T12:05:13;2.80;;;2.60;;
11245;SDS011;59870;50.106;8.580;2023-09-18T12:07:43;3.37;;;2.77;;
11245;SDS011;59870;50.106;8.580;2023-09-18T12:10:13;6.20;;;3.10;;
11245;SDS011;59870;50.106;8.580;2023-09-18T12:12:44;3.23;;;2.93;;
11245;SDS011;59870;50.106;8.580;2023-09-18T12:15:17;3.03;;;2.83;;
11245;SDS011;59870;50.106;8.580;2023-09-18T12:17:46;4.10;;;2.60;;
11245;SDS011;59870;50.106;8.580;2023-09-18T12:20:14;4.73;;;2.63;;
11245;SDS011;59870;50.106;8.580;2023-09-18T12:22:49;4.93;;;2.70;;
11245;SDS011;59870;50.106;8.580;2023-09-18T12:25:17;2.37;;;2.23;;
11245;SDS011;59870;50.106;8.580;2023-09-18T12:27:46;3.07;;;2.80;;
11245;SDS011;59870;50.106;8.580;2023-09-18T12:30:19;4.53;;;2.10;;
11245;SDS011;59870;50.106;8.580;2023-09-18T12:32:50;2.77;;;2.60;;
11245;SDS011;59870;50.106;8.580;2023-09-18T12:35:18;2.77;;;2.57;;
11245;SDS011;59870;50.106;8.580;2023-09-18T12:37:46;3.27;;;2.90;;
11245;SDS011;59870;50.106;8.580;2023-09-18T12:40:20;3.77;;;3.17;;
11245;SDS011;59870;50.106;8.580;2023-09-18T12:42:53;2.87;;;2.73;;
11245;SDS011;59870;50.106;8.580;2023-09-18T12:45:28;3.17;;;2.90;;
11245;SDS011;59870;50.106;8.580;2023-09-18T12:47:57;2.83;;;2.50;;
11245;SDS011;59870;50.106;8.580;2023-09-18T12:50:26;4.25;;;3.38;;
11245;SDS011;59870;50.106;8.580;2023-09-18T12:52:53;3.30;;;3.00;;
11245;SDS011;59870;50.106;8.580;2023-09-18T12:55:34;4.27;;;2.70;;
11245;SDS011;59870;50.106;8.580;2023-09-18T12:58:02;2.90;;;2.67;;
11245;SDS011;59870;50.106;8.580;2023-09-18T13:00:34;3.23;;;2.70;;
11245;SDS011;59870;50.106;8.580;2023-09-18T13:03:03;2.60;;;2.50;;
11245;SDS011;59870;50.106;8.580;2023-09-18T13:05:31;3.90;;;2.77;;
11245;SDS011;59870;50.106;8.580;2023-09-18T13:08:03;2.77;;;2.57;;
11245;SDS011;59870;50.106;8.580;2023-09-18T13:10:43;3.70;;;3.10;;
11245;SDS011;59870;50.106;8.580;2023-09-18T13:13:18;5.33;;;2.83;;
11245;SDS011;59870;50.106;8.580;2023-09-18T13:15:50;2.90;;;2.63;;
11245;SDS011;59870;50.106;8.580;2023-09-18T13:18:22;2.67;;;2.50;;
11245;SDS011;59870;50.106;8.580;2023-09-18T13:20:51;3.88;;;2.30;;
11245;SDS011;59870;50.106;8.580;2023-09-18T13:23:19;2.90;;;2.50;;
11245;SDS011;59870;50.106;8.580;2023-09-18T13:25:48;12.73;;;11.67;;
11245;SDS011;59870;50.106;8.580;2023-09-18T13:28:16;18.07;;;15.50;;
11245;SDS011;59870;50.106;8.580;2023-09-18T13:30:47;4.40;;;4.17;;
11245;SDS011;59870;50.106;8.580;2023-09-18T13:33:15;3.60;;;3.30;;
11245;SDS011;59870;50.106;8.580;2023-09-18T13:35:44;6.53;;;4.37;;
11245;SDS011;59870;50.106;8.580;2023-09-18T13:38:12;5.83;;;4.30;;
11245;SDS011;59870;50.106;8.580;2023-09-18T13:40:41;6.40;;;4.40;;
11245;SDS011;59870;50.106;8.580;2023-09-18T13:43:09;3.23;;;3.03;;
11245;SDS011;59870;50.106;8.580;2023-09-18T13:45:37;3.57;;;3.27;;
11245;SDS011;59870;50.106;8.580;2023-09-18T13:48:05;4.03;;;3.70;;
11245;SDS011;59870;50.106;8.580;2023-09-18T13:50:34;2.90;;;2.70;;
11245;SDS011;59870;50.106;8.580;2023-09-18T13:53:03;3.47;;;3.07;;
11245;SDS011;59870;50.106;8.580;2023-09-18T13:55:32;3.57;;;3.27;;
11245;SDS011;59870;50.106;8.580;2023-09-18T13:58:01;3.40;;;3.20;;
11245;SDS011;59870;50.106;8.580;2023-09-18T14:00:31;3.27;;;3.07;;
11245;SDS011;59870;50.106;8.580;2023-09-18T14:02:59;3.80;;;2.73;;
11245;SDS011;59870;50.106;8.580;2023-09-18T14:05:27;3.17;;;2.87;;
11245;SDS011;59870;50.106;8.580;2023-09-18T14:07:56;3.23;;;2.90;;
11245;SDS011;59870;50.106;8.580;2023-09-18T14:10:27;3.30;;;3.03;;
11245;SDS011;59870;50.106;8.580;2023-09-18T14:12:55;5.23;;;3.40;;
11245;SDS011;59870;50.106;8.580;2023-09-18T14:15:24;4.60;;;2.73;;
11245;SDS011;59870;50.106;8.580;2023-09-18T14:18:10;6.30;;;3.40;;
11245;SDS011;59870;50.106;8.580;2023-09-18T14:20:40;4.73;;;3.27;;
11245;SDS011;59870;50.106;8.580;2023-09-18T14:23:08;3.30;;;3.00;;
11245;SDS011;59870;50.106;8.580;2023-09-18T14:25:36;3.33;;;3.13;;
11245;SDS011;59870;50.106;8.580;2023-09-18T14:28:04;3.23;;;2.70;;
11245;SDS011;59870;50.106;8.580;2023-09-18T14:30:32;3.00;;;2.87;;
11245;SDS011;59870;50.106;8.580;2023-09-18T14:33:00;4.07;;;3.03;;
11245;SDS011;59870;50.106;8.580;2023-09-18T14:35:28;4.80;;;3.33;;
11245;SDS011;59870;50.106;8.580;2023-09-18T14:37:56;3.73;;;3.53;;
11245;SDS011;59870;50.106;8.580;2023-09-18T14:40:23;4.73;;;2.80;;
11245;SDS011;59870;50.106;8.580;2023-09-18T14:42:51;3.07;;;2.70;;
11245;SDS011;59870;50.106;8.580;2023-09-18T14:45:19;4.60;;;3.20;;
11245;SDS011;59870;50.106;8.580;2023-09-18T14:47:47;4.87;;;3.30;;
11245;SDS011;59870;50.106;8.580;2023-09-18T14:50:15;3.33;;;3.03;;
11245;SDS011;59870;50.106;8.580;2023-09-18T14:52:43;3.33;;;3.08;;
11245;SDS011;59870;50.106;8.580;2023-09-18T14:55:10;3.57;;;3.27;;
11245;SDS011;59870;50.106;8.580;2023-09-18T14:57:40;3.78;;;3.47;;
11245;SDS011;59870;50.106;8.580;2023-09-18T15:00:07;4.57;;;3.27;;
11245;SDS011;59870;50.106;8.580;2023-09-18T15:02:35;3.47;;;3.20;;
11245;SDS011;59870;50.106;8.580;2023-09-18T15:05:03;4.20;;;3.80;;
11245;SDS011;59870;50.106;8.580;2023-09-18T15:07:35;4.20;;;3.90;;
11245;SDS011;59870;50.106;8.580;2023-09-18T15:10:03;3.83;;;3.43;;
11245;SDS011;59870;50.106;8.580;2023-09-18T15:12:32;3.60;;;3.30;;